RYR11YF LIPX-LICC
Flight info
| Callsign | RYR11YF |
|---|---|
| Flight time | 1h 21m |
| Altitude | 39000 |
| Route | ITEFE T558 LUMAV DCT DIPVO DCT INTUD DCT MALOG DCT PELEN DCT UXUTA DCT LIBRO |
| Aircraft | B38M/M-SDE1FGHILORVWXY/HB1 |
Departure
| Time | 2026-04-22 19:28 |
|---|---|
| Airport | Verona Villafranca Valerio Catullo Airport (LIPX) |
Arrival
| Time | 2026-04-22 20:50 |
|---|---|
| Airport | Catania-Fontanarossa Airport (LICC) |
| Time | Latitude | Longitude | Altitude | Speed | Heading |
|---|---|---|---|---|---|
| 2026-04-22 19:07 | 45.40275 | 10.90551 | 239 ft | 0 kts | 135° |
| 2026-04-22 19:20 | 45.40277 | 10.90548 | 239 ft | 3 kts | 135° |
| 2026-04-22 19:20 | 45.40295 | 10.90522 | 239 ft | 4 kts | 124° |
| 2026-04-22 19:21 | 45.40301 | 10.90491 | 239 ft | 4 kts | 72° |
| 2026-04-22 19:21 | 45.40291 | 10.90467 | 239 ft | 0 kts | 45° |
| 2026-04-22 19:23 | 45.40292 | 10.90468 | 239 ft | 1 kts | 45° |
| 2026-04-22 19:24 | 45.40304 | 10.90485 | 239 ft | 4 kts | 45° |
| 2026-04-22 19:24 | 45.40330 | 10.90524 | 239 ft | 7 kts | 47° |
| 2026-04-22 19:24 | 45.40373 | 10.90588 | 239 ft | 11 kts | 46° |
| 2026-04-22 19:24 | 45.40431 | 10.90672 | 239 ft | 13 kts | 45° |
| 2026-04-22 19:25 | 45.40495 | 10.90755 | 239 ft | 11 kts | 24° |
| 2026-04-22 19:25 | 45.40541 | 10.90722 | 239 ft | 9 kts | 317° |
| 2026-04-22 19:25 | 45.40591 | 10.90658 | 239 ft | 10 kts | 331° |
| 2026-04-22 19:25 | 45.40634 | 10.90596 | 239 ft | 7 kts | 270° |
| 2026-04-22 19:26 | 45.40634 | 10.90592 | 239 ft | 0 kts | 266° |
| 2026-04-22 19:26 | 45.40634 | 10.90591 | 239 ft | 1 kts | 265° |
| 2026-04-22 19:26 | 45.40632 | 10.90575 | 240 ft | 3 kts | 260° |
| 2026-04-22 19:27 | 45.40620 | 10.90498 | 240 ft | 14 kts | 256° |
| 2026-04-22 19:27 | 45.40582 | 10.90333 | 239 ft | 20 kts | 239° |
| 2026-04-22 19:27 | 45.40470 | 10.90162 | 239 ft | 30 kts | 225° |
| 2026-04-22 19:27 | 45.40162 | 10.89713 | 242 ft | 95 kts | 226° |
| 2026-04-22 19:28 | 45.39564 | 10.88843 | 241 ft | 148 kts | 225° |
| 2026-04-22 19:28 | 45.38803 | 10.87716 | 595 ft | 162 kts | 226° |
| 2026-04-22 19:28 | 45.38030 | 10.86543 | 1228 ft | 161 kts | 227° |
| 2026-04-22 19:28 | 45.37206 | 10.85352 | 1632 ft | 177 kts | 212° |
| 2026-04-22 19:29 | 45.36044 | 10.84963 | 2210 ft | 179 kts | 164° |
| 2026-04-22 19:29 | 45.35037 | 10.85993 | 2714 ft | 188 kts | 118° |
| 2026-04-22 19:29 | 45.34403 | 10.87697 | 3309 ft | 201 kts | 121° |
| 2026-04-22 19:29 | 45.33557 | 10.89355 | 3851 ft | 219 kts | 128° |
| 2026-04-22 19:30 | 45.32889 | 10.90530 | 4200 ft | 233 kts | 129° |
| 2026-04-22 19:30 | 45.31459 | 10.92971 | 4907 ft | 258 kts | 129° |
| 2026-04-22 19:30 | 45.30266 | 10.94968 | 5600 ft | 267 kts | 129° |
| 2026-04-22 19:30 | 45.29065 | 10.96975 | 6541 ft | 268 kts | 129° |
| 2026-04-22 19:31 | 45.27862 | 10.98980 | 7342 ft | 272 kts | 128° |
| 2026-04-22 19:31 | 45.26619 | 11.01049 | 8126 ft | 278 kts | 128° |
| 2026-04-22 19:31 | 45.25399 | 11.03073 | 8912 ft | 282 kts | 128° |
| 2026-04-22 19:31 | 45.24109 | 11.05214 | 9690 ft | 289 kts | 127° |
| 2026-04-22 19:32 | 45.22789 | 11.07399 | 10416 ft | 295 kts | 127° |
| 2026-04-22 19:32 | 45.21444 | 11.09617 | 10805 ft | 313 kts | 128° |
| 2026-04-22 19:32 | 45.19989 | 11.12012 | 11283 ft | 327 kts | 128° |
| 2026-04-22 19:32 | 45.18493 | 11.14483 | 12036 ft | 330 kts | 128° |
| 2026-04-22 19:33 | 45.16987 | 11.16973 | 12837 ft | 335 kts | 128° |
| 2026-04-22 19:33 | 45.15462 | 11.19495 | 13645 ft | 339 kts | 128° |
| 2026-04-22 19:33 | 45.13920 | 11.22043 | 14394 ft | 344 kts | 128° |
| 2026-04-22 19:33 | 45.12355 | 11.24629 | 15132 ft | 348 kts | 128° |
| 2026-04-22 19:34 | 45.10577 | 11.27004 | 15869 ft | 355 kts | 140° |
| 2026-04-22 19:34 | 45.08788 | 11.29047 | 16526 ft | 360 kts | 138° |
| 2026-04-22 19:34 | 45.06851 | 11.31338 | 17240 ft | 365 kts | 137° |
| 2026-04-22 19:34 | 45.04903 | 11.33668 | 17933 ft | 370 kts | 137° |
| 2026-04-22 19:35 | 45.03016 | 11.35941 | 18570 ft | 374 kts | 137° |
| 2026-04-22 19:35 | 45.01137 | 11.38210 | 19116 ft | 379 kts | 137° |
| 2026-04-22 19:35 | 44.99805 | 11.39823 | 19508 ft | 382 kts | 137° |
| 2026-04-22 19:35 | 44.97085 | 11.43108 | 20262 ft | 388 kts | 137° |
| 2026-04-22 19:36 | 44.95016 | 11.45588 | 20819 ft | 393 kts | 138° |
| 2026-04-22 19:36 | 44.92912 | 11.48079 | 21376 ft | 397 kts | 138° |
| 2026-04-22 19:36 | 44.90809 | 11.50570 | 21925 ft | 401 kts | 138° |
| 2026-04-22 19:36 | 44.88661 | 11.53112 | 22462 ft | 406 kts | 138° |
| 2026-04-22 19:37 | 44.86484 | 11.55688 | 23001 ft | 410 kts | 138° |
| 2026-04-22 19:37 | 44.84409 | 11.58139 | 23488 ft | 414 kts | 138° |
| 2026-04-22 19:37 | 44.82155 | 11.60718 | 23954 ft | 420 kts | 145° |
| 2026-04-22 19:37 | 44.79528 | 11.62543 | 24400 ft | 423 kts | 161° |
| 2026-04-22 19:38 | 44.76755 | 11.63976 | 24772 ft | 428 kts | 160° |
| 2026-04-22 19:38 | 44.73977 | 11.65418 | 25198 ft | 431 kts | 161° |
| 2026-04-22 19:38 | 44.71138 | 11.66869 | 25621 ft | 435 kts | 162° |
| 2026-04-22 19:38 | 44.68283 | 11.68317 | 26020 ft | 439 kts | 162° |
| 2026-04-22 19:39 | 44.65400 | 11.69777 | 26427 ft | 442 kts | 162° |
| 2026-04-22 19:39 | 44.62569 | 11.71209 | 26811 ft | 446 kts | 162° |
| 2026-04-22 19:39 | 44.59643 | 11.72686 | 27199 ft | 449 kts | 163° |
| 2026-04-22 19:39 | 44.56682 | 11.74180 | 27585 ft | 453 kts | 163° |
| 2026-04-22 19:40 | 44.53783 | 11.75641 | 27940 ft | 457 kts | 163° |
| 2026-04-22 19:40 | 44.50781 | 11.77152 | 28308 ft | 460 kts | 164° |
| 2026-04-22 19:40 | 44.47757 | 11.78673 | 28651 ft | 464 kts | 164° |
| 2026-04-22 19:40 | 44.44707 | 11.80206 | 29010 ft | 468 kts | 164° |
| 2026-04-22 19:41 | 44.41679 | 11.81725 | 29345 ft | 471 kts | 165° |
| 2026-04-22 19:41 | 44.38537 | 11.83300 | 29688 ft | 475 kts | 165° |
| 2026-04-22 19:41 | 44.35418 | 11.84861 | 30021 ft | 478 kts | 165° |
| 2026-04-22 19:41 | 44.32281 | 11.86431 | 30340 ft | 482 kts | 165° |
| 2026-04-22 19:42 | 44.29110 | 11.88015 | 30625 ft | 484 kts | 165° |
| 2026-04-22 19:42 | 44.25930 | 11.89602 | 30952 ft | 486 kts | 165° |
| 2026-04-22 19:42 | 44.22784 | 11.91170 | 31254 ft | 488 kts | 165° |
| 2026-04-22 19:42 | 44.19578 | 11.92766 | 31560 ft | 490 kts | 165° |
| 2026-04-22 19:43 | 44.13130 | 11.95970 | 32168 ft | 494 kts | 165° |
| 2026-04-22 19:43 | 44.09889 | 11.97578 | 32458 ft | 496 kts | 165° |
| 2026-04-22 19:43 | 44.06634 | 11.99191 | 32755 ft | 498 kts | 165° |
| 2026-04-22 19:44 | 44.03365 | 12.00808 | 33035 ft | 500 kts | 165° |
| 2026-04-22 19:44 | 44.00080 | 12.02432 | 33327 ft | 501 kts | 166° |
| 2026-04-22 19:44 | 43.96793 | 12.04055 | 33600 ft | 503 kts | 166° |
| 2026-04-22 19:44 | 43.93487 | 12.05686 | 33892 ft | 505 kts | 165° |
| 2026-04-22 19:45 | 43.90169 | 12.07320 | 34163 ft | 507 kts | 165° |
| 2026-04-22 19:45 | 43.86834 | 12.08961 | 34413 ft | 508 kts | 165° |
| 2026-04-22 19:45 | 43.83507 | 12.10596 | 34749 ft | 507 kts | 165° |
| 2026-04-22 19:45 | 43.80181 | 12.12228 | 35071 ft | 506 kts | 165° |
| 2026-04-22 19:46 | 43.77984 | 12.13305 | 35271 ft | 506 kts | 165° |
| 2026-04-22 19:46 | 43.74734 | 12.14898 | 35605 ft | 504 kts | 165° |
| 2026-04-22 19:46 | 43.71425 | 12.16518 | 35885 ft | 504 kts | 165° |
| 2026-04-22 19:46 | 43.68121 | 12.18132 | 36196 ft | 503 kts | 165° |
| 2026-04-22 19:47 | 43.64828 | 12.19741 | 36525 ft | 502 kts | 165° |
| 2026-04-22 19:47 | 43.61539 | 12.21134 | 36795 ft | 497 kts | 172° |
| 2026-04-22 19:47 | 43.58181 | 12.22263 | 37088 ft | 497 kts | 170° |
| 2026-04-22 19:47 | 43.54834 | 12.23452 | 37360 ft | 497 kts | 169° |
| 2026-04-22 19:48 | 43.51483 | 12.24666 | 37635 ft | 497 kts | 169° |
| 2026-04-22 19:48 | 43.48141 | 12.25882 | 37898 ft | 496 kts | 169° |
| 2026-04-22 19:48 | 43.44807 | 12.27096 | 38153 ft | 496 kts | 169° |
| 2026-04-22 19:48 | 43.41466 | 12.28311 | 38412 ft | 495 kts | 169° |
| 2026-04-22 19:49 | 43.38154 | 12.29514 | 38712 ft | 493 kts | 168° |
| 2026-04-22 19:49 | 43.34848 | 12.30714 | 38962 ft | 490 kts | 168° |
| 2026-04-22 19:49 | 43.31567 | 12.31903 | 39162 ft | 488 kts | 168° |
| 2026-04-22 19:49 | 43.28263 | 12.33099 | 39183 ft | 491 kts | 168° |
| 2026-04-22 19:50 | 43.21709 | 12.35469 | 39159 ft | 492 kts | 168° |
| 2026-04-22 19:50 | 43.15081 | 12.37858 | 39159 ft | 492 kts | 168° |
| 2026-04-22 19:51 | 43.08455 | 12.40243 | 39155 ft | 492 kts | 168° |
| 2026-04-22 19:51 | 43.01829 | 12.42622 | 39157 ft | 493 kts | 169° |
| 2026-04-22 19:52 | 42.95193 | 12.44999 | 39152 ft | 493 kts | 169° |
| 2026-04-22 19:52 | 42.88564 | 12.47369 | 39152 ft | 492 kts | 169° |
| 2026-04-22 19:53 | 42.82005 | 12.49709 | 39146 ft | 492 kts | 169° |
| 2026-04-22 19:53 | 42.75342 | 12.52080 | 39136 ft | 491 kts | 169° |
| 2026-04-22 19:54 | 42.68769 | 12.54414 | 39129 ft | 491 kts | 169° |
| 2026-04-22 19:54 | 42.62159 | 12.56756 | 39136 ft | 491 kts | 169° |
| 2026-04-22 19:55 | 42.55560 | 12.59089 | 39126 ft | 490 kts | 169° |
| 2026-04-22 19:55 | 42.48951 | 12.61422 | 39115 ft | 490 kts | 169° |
| 2026-04-22 19:56 | 42.42489 | 12.64457 | 39125 ft | 493 kts | 163° |
| 2026-04-22 19:56 | 42.36057 | 12.67740 | 39107 ft | 493 kts | 163° |
| 2026-04-22 19:57 | 42.29641 | 12.71020 | 39099 ft | 493 kts | 163° |
| 2026-04-22 19:57 | 42.23226 | 12.74294 | 39099 ft | 492 kts | 163° |
| 2026-04-22 19:58 | 42.16816 | 12.77557 | 39093 ft | 492 kts | 163° |
| 2026-04-22 19:58 | 42.10414 | 12.80810 | 39086 ft | 491 kts | 163° |
| 2026-04-22 20:00 | 41.88139 | 12.92071 | 39071 ft | 489 kts | 163° |
| 2026-04-22 20:01 | 41.81779 | 12.95272 | 39073 ft | 488 kts | 164° |
| 2026-04-22 20:01 | 41.75517 | 12.98415 | 39077 ft | 488 kts | 164° |
| 2026-04-22 20:02 | 41.69166 | 13.01598 | 39077 ft | 487 kts | 164° |
| 2026-04-22 20:02 | 41.62962 | 13.04700 | 39079 ft | 487 kts | 164° |
| 2026-04-22 20:03 | 41.56612 | 13.07868 | 39082 ft | 487 kts | 164° |
| 2026-04-22 20:03 | 41.50279 | 13.11022 | 39075 ft | 485 kts | 164° |
| 2026-04-22 20:04 | 41.43956 | 13.14163 | 39080 ft | 485 kts | 164° |
| 2026-04-22 20:04 | 41.37641 | 13.17294 | 39075 ft | 484 kts | 164° |
| 2026-04-22 20:05 | 41.31325 | 13.20420 | 39081 ft | 483 kts | 164° |
| 2026-04-22 20:05 | 41.25071 | 13.23508 | 39072 ft | 482 kts | 165° |
| 2026-04-22 20:06 | 41.18777 | 13.26610 | 39074 ft | 482 kts | 165° |
| 2026-04-22 20:06 | 41.12497 | 13.29698 | 39067 ft | 481 kts | 165° |
| 2026-04-22 20:07 | 41.06209 | 13.32784 | 39073 ft | 481 kts | 165° |
| 2026-04-22 20:07 | 40.99922 | 13.35863 | 39070 ft | 481 kts | 165° |
| 2026-04-22 20:08 | 40.93643 | 13.38932 | 39068 ft | 481 kts | 165° |
| 2026-04-22 20:08 | 40.87362 | 13.41995 | 39070 ft | 481 kts | 164° |
| 2026-04-22 20:09 | 40.81079 | 13.45054 | 39068 ft | 481 kts | 165° |
| 2026-04-22 20:09 | 40.74797 | 13.48106 | 39066 ft | 481 kts | 165° |
| 2026-04-22 20:10 | 40.68554 | 13.51133 | 39065 ft | 480 kts | 164° |
| 2026-04-22 20:10 | 40.62284 | 13.54168 | 39065 ft | 480 kts | 164° |
| 2026-04-22 20:11 | 40.56014 | 13.57197 | 39066 ft | 480 kts | 165° |
| 2026-04-22 20:11 | 40.49689 | 13.59875 | 39071 ft | 476 kts | 168° |
| 2026-04-22 20:12 | 40.43500 | 13.62379 | 39064 ft | 476 kts | 167° |
| 2026-04-22 20:12 | 40.38209 | 13.64534 | 39064 ft | 475 kts | 167° |
| 2026-04-22 20:13 | 40.30876 | 13.67517 | 39063 ft | 474 kts | 167° |
| 2026-04-22 20:13 | 40.24585 | 13.70071 | 39060 ft | 473 kts | 168° |
| 2026-04-22 20:14 | 40.18301 | 13.72618 | 39060 ft | 472 kts | 168° |
| 2026-04-22 20:14 | 40.12014 | 13.75160 | 39065 ft | 472 kts | 168° |
| 2026-04-22 20:15 | 40.05744 | 13.77691 | 39056 ft | 472 kts | 168° |
| 2026-04-22 20:15 | 39.99472 | 13.80218 | 39053 ft | 471 kts | 168° |
| 2026-04-22 20:16 | 39.93202 | 13.82739 | 39054 ft | 471 kts | 168° |
| 2026-04-22 20:16 | 39.86936 | 13.85254 | 39055 ft | 471 kts | 168° |
| 2026-04-22 20:17 | 39.80671 | 13.87763 | 39055 ft | 471 kts | 168° |
| 2026-04-22 20:17 | 39.74407 | 13.90267 | 39045 ft | 471 kts | 168° |
| 2026-04-22 20:18 | 39.68146 | 13.92766 | 39054 ft | 471 kts | 168° |
| 2026-04-22 20:18 | 39.61881 | 13.95261 | 39046 ft | 470 kts | 168° |
| 2026-04-22 20:19 | 39.55623 | 13.97748 | 39051 ft | 470 kts | 168° |
| 2026-04-22 20:19 | 39.49370 | 14.00230 | 39049 ft | 470 kts | 168° |
| 2026-04-22 20:20 | 39.43113 | 14.02707 | 39045 ft | 470 kts | 168° |
| 2026-04-22 20:20 | 39.36867 | 14.05176 | 38924 ft | 467 kts | 168° |
| 2026-04-22 20:20 | 39.33770 | 14.06398 | 38275 ft | 466 kts | 168° |
| 2026-04-22 20:21 | 39.30703 | 14.07609 | 37524 ft | 467 kts | 168° |
| 2026-04-22 20:21 | 39.27608 | 14.08828 | 37016 ft | 462 kts | 168° |
| 2026-04-22 20:21 | 39.24546 | 14.10033 | 36607 ft | 456 kts | 168° |
| 2026-04-22 20:21 | 39.21531 | 14.11219 | 36127 ft | 452 kts | 168° |
| 2026-04-22 20:22 | 39.18523 | 14.12401 | 35616 ft | 450 kts | 168° |
| 2026-04-22 20:22 | 39.15538 | 14.13573 | 35125 ft | 447 kts | 168° |
| 2026-04-22 20:22 | 39.12570 | 14.14737 | 34647 ft | 445 kts | 168° |
| 2026-04-22 20:22 | 39.09618 | 14.15894 | 34163 ft | 442 kts | 168° |
| 2026-04-22 20:23 | 39.06679 | 14.17045 | 33638 ft | 440 kts | 169° |
| 2026-04-22 20:23 | 39.03754 | 14.18189 | 33126 ft | 438 kts | 169° |
| 2026-04-22 20:23 | 39.00851 | 14.19324 | 32668 ft | 434 kts | 169° |
| 2026-04-22 20:23 | 38.97964 | 14.20451 | 32214 ft | 431 kts | 169° |
| 2026-04-22 20:24 | 38.95105 | 14.21567 | 31764 ft | 428 kts | 169° |
| 2026-04-22 20:24 | 38.92264 | 14.22674 | 31316 ft | 425 kts | 169° |
| 2026-04-22 20:24 | 38.89440 | 14.23774 | 30868 ft | 423 kts | 169° |
| 2026-04-22 20:24 | 38.86626 | 14.24870 | 30433 ft | 420 kts | 169° |
| 2026-04-22 20:25 | 38.83833 | 14.25956 | 29993 ft | 418 kts | 169° |
| 2026-04-22 20:25 | 38.81046 | 14.27039 | 29509 ft | 416 kts | 169° |
| 2026-04-22 20:25 | 38.78290 | 14.28109 | 29093 ft | 412 kts | 169° |
| 2026-04-22 20:25 | 38.75589 | 14.29157 | 28671 ft | 408 kts | 169° |
| 2026-04-22 20:26 | 38.72849 | 14.30219 | 28265 ft | 405 kts | 169° |
| 2026-04-22 20:26 | 38.70195 | 14.31247 | 27865 ft | 401 kts | 169° |
| 2026-04-22 20:26 | 38.67532 | 14.32278 | 27468 ft | 398 kts | 169° |
| 2026-04-22 20:26 | 38.64882 | 14.33302 | 27081 ft | 395 kts | 169° |
| 2026-04-22 20:27 | 38.62263 | 14.34315 | 26702 ft | 393 kts | 169° |
| 2026-04-22 20:27 | 38.59651 | 14.35323 | 26328 ft | 390 kts | 169° |
| 2026-04-22 20:27 | 38.57059 | 14.36323 | 25955 ft | 388 kts | 169° |
| 2026-04-22 20:27 | 38.54483 | 14.37317 | 25584 ft | 386 kts | 169° |
| 2026-04-22 20:28 | 38.52749 | 14.37985 | 25334 ft | 384 kts | 169° |
| 2026-04-22 20:28 | 38.50197 | 14.38968 | 24971 ft | 382 kts | 169° |
| 2026-04-22 20:28 | 38.47658 | 14.39945 | 24615 ft | 380 kts | 169° |
| 2026-04-22 20:28 | 38.45134 | 14.40916 | 24253 ft | 378 kts | 169° |
| 2026-04-22 20:29 | 38.42615 | 14.41884 | 23893 ft | 377 kts | 169° |
| 2026-04-22 20:29 | 38.40081 | 14.42567 | 23217 ft | 366 kts | 184° |
| 2026-04-22 20:29 | 38.37596 | 14.42486 | 22486 ft | 361 kts | 187° |
| 2026-04-22 20:29 | 38.35081 | 14.42470 | 21775 ft | 361 kts | 186° |
| 2026-04-22 20:30 | 38.32569 | 14.42488 | 21074 ft | 361 kts | 186° |
| 2026-04-22 20:30 | 38.30062 | 14.42522 | 20404 ft | 359 kts | 185° |
| 2026-04-22 20:30 | 38.27579 | 14.42563 | 19904 ft | 353 kts | 185° |
| 2026-04-22 20:30 | 38.25134 | 14.42607 | 19551 ft | 351 kts | 185° |
| 2026-04-22 20:31 | 38.22701 | 14.42652 | 19204 ft | 349 kts | 185° |
| 2026-04-22 20:31 | 38.20280 | 14.42697 | 18864 ft | 347 kts | 185° |
| 2026-04-22 20:31 | 38.17875 | 14.42743 | 18529 ft | 345 kts | 185° |
| 2026-04-22 20:31 | 38.15478 | 14.42789 | 18169 ft | 343 kts | 185° |
| 2026-04-22 20:32 | 38.13098 | 14.42834 | 17805 ft | 341 kts | 185° |
| 2026-04-22 20:32 | 38.10735 | 14.42878 | 17457 ft | 338 kts | 185° |
| 2026-04-22 20:32 | 38.08397 | 14.42922 | 17125 ft | 335 kts | 185° |
| 2026-04-22 20:32 | 38.06074 | 14.42966 | 16800 ft | 332 kts | 185° |
| 2026-04-22 20:33 | 38.03766 | 14.43010 | 16473 ft | 330 kts | 184° |
| 2026-04-22 20:33 | 38.01480 | 14.43052 | 16148 ft | 327 kts | 184° |
| 2026-04-22 20:33 | 37.99246 | 14.43095 | 15827 ft | 323 kts | 184° |
| 2026-04-22 20:33 | 37.96983 | 14.43138 | 15502 ft | 319 kts | 184° |
| 2026-04-22 20:34 | 37.94810 | 14.43179 | 15205 ft | 314 kts | 184° |
| 2026-04-22 20:34 | 37.92632 | 14.43219 | 14870 ft | 313 kts | 184° |
| 2026-04-22 20:34 | 37.90454 | 14.43260 | 14551 ft | 312 kts | 184° |
| 2026-04-22 20:34 | 37.88287 | 14.43301 | 14256 ft | 311 kts | 184° |
| 2026-04-22 20:35 | 37.86124 | 14.43342 | 13943 ft | 310 kts | 184° |
| 2026-04-22 20:35 | 37.83965 | 14.43382 | 13596 ft | 309 kts | 184° |
| 2026-04-22 20:35 | 37.81825 | 14.43423 | 13255 ft | 306 kts | 184° |
| 2026-04-22 20:35 | 37.79700 | 14.43463 | 12940 ft | 304 kts | 184° |
| 2026-04-22 20:36 | 37.77600 | 14.43503 | 12628 ft | 301 kts | 184° |
| 2026-04-22 20:36 | 37.75513 | 14.43541 | 12331 ft | 299 kts | 184° |
| 2026-04-22 20:36 | 37.73446 | 14.43580 | 12029 ft | 297 kts | 183° |
| 2026-04-22 20:36 | 37.71383 | 14.43619 | 11725 ft | 295 kts | 183° |
| 2026-04-22 20:37 | 37.69341 | 14.43656 | 11422 ft | 293 kts | 183° |
| 2026-04-22 20:37 | 37.67314 | 14.43695 | 11138 ft | 290 kts | 183° |
| 2026-04-22 20:37 | 37.65298 | 14.43732 | 10836 ft | 289 kts | 183° |
| 2026-04-22 20:37 | 37.63292 | 14.43770 | 10543 ft | 287 kts | 182° |
| 2026-04-22 20:38 | 37.61301 | 14.43807 | 10254 ft | 286 kts | 182° |
| 2026-04-22 20:38 | 37.59325 | 14.43844 | 10082 ft | 280 kts | 182° |
| 2026-04-22 20:38 | 37.57401 | 14.43880 | 9934 ft | 272 kts | 182° |
| 2026-04-22 20:38 | 37.55538 | 14.43915 | 9794 ft | 264 kts | 182° |
| 2026-04-22 20:39 | 37.53732 | 14.43949 | 9654 ft | 255 kts | 182° |
| 2026-04-22 20:39 | 37.51984 | 14.43981 | 9518 ft | 247 kts | 182° |
| 2026-04-22 20:39 | 37.50286 | 14.44137 | 9292 ft | 244 kts | 176° |
| 2026-04-22 20:39 | 37.48610 | 14.44380 | 9003 ft | 242 kts | 176° |
| 2026-04-22 20:40 | 37.46944 | 14.44611 | 8739 ft | 241 kts | 176° |
| 2026-04-22 20:40 | 37.45253 | 14.44840 | 8487 ft | 247 kts | 176° |
| 2026-04-22 20:40 | 37.43598 | 14.45468 | 8165 ft | 253 kts | 149° |
| 2026-04-22 20:40 | 37.42365 | 14.47020 | 7878 ft | 252 kts | 118° |
| 2026-04-22 20:41 | 37.41865 | 14.49088 | 7604 ft | 246 kts | 90° |
| 2026-04-22 20:41 | 37.41964 | 14.51206 | 7340 ft | 241 kts | 81° |
| 2026-04-22 20:41 | 37.42153 | 14.53292 | 7068 ft | 239 kts | 81° |
| 2026-04-22 20:41 | 37.42343 | 14.55375 | 6789 ft | 239 kts | 81° |
| 2026-04-22 20:42 | 37.42527 | 14.57451 | 6508 ft | 239 kts | 81° |
| 2026-04-22 20:42 | 37.42695 | 14.59318 | 6246 ft | 239 kts | 81° |
| 2026-04-22 20:42 | 37.42886 | 14.61392 | 5951 ft | 238 kts | 81° |
| 2026-04-22 20:42 | 37.43072 | 14.63452 | 5687 ft | 236 kts | 82° |
| 2026-04-22 20:43 | 37.43237 | 14.65503 | 5422 ft | 235 kts | 82° |
| 2026-04-22 20:43 | 37.43403 | 14.67545 | 5146 ft | 234 kts | 82° |
| 2026-04-22 20:43 | 37.43568 | 14.69560 | 4864 ft | 234 kts | 82° |
| 2026-04-22 20:43 | 37.43692 | 14.71081 | 4668 ft | 233 kts | 82° |
| 2026-04-22 20:44 | 37.43860 | 14.73100 | 4438 ft | 228 kts | 83° |
| 2026-04-22 20:44 | 37.44021 | 14.75031 | 4289 ft | 215 kts | 83° |
| 2026-04-22 20:44 | 37.44174 | 14.76857 | 4151 ft | 204 kts | 83° |
| 2026-04-22 20:44 | 37.44318 | 14.78575 | 4012 ft | 192 kts | 82° |
| 2026-04-22 20:45 | 37.44455 | 14.80205 | 3856 ft | 183 kts | 83° |
| 2026-04-22 20:45 | 37.44587 | 14.81777 | 3639 ft | 178 kts | 83° |
| 2026-04-22 20:45 | 37.44716 | 14.83310 | 3436 ft | 176 kts | 83° |
| 2026-04-22 20:45 | 37.44844 | 14.84834 | 3223 ft | 175 kts | 84° |
| 2026-04-22 20:46 | 37.45094 | 14.87803 | 2800 ft | 165 kts | 84° |
| 2026-04-22 20:46 | 37.45212 | 14.89210 | 2617 ft | 159 kts | 84° |
| 2026-04-22 20:46 | 37.45326 | 14.90560 | 2408 ft | 152 kts | 84° |
| 2026-04-22 20:47 | 37.45435 | 14.91857 | 2191 ft | 147 kts | 84° |
| 2026-04-22 20:47 | 37.45541 | 14.93126 | 1992 ft | 144 kts | 84° |
| 2026-04-22 20:47 | 37.45644 | 14.94366 | 1794 ft | 143 kts | 85° |
| 2026-04-22 20:47 | 37.45742 | 14.95609 | 1616 ft | 144 kts | 84° |
| 2026-04-22 20:48 | 37.45852 | 14.96870 | 1432 ft | 145 kts | 84° |
| 2026-04-22 20:48 | 37.45961 | 14.98138 | 1239 ft | 148 kts | 84° |
| 2026-04-22 20:48 | 37.46069 | 14.99429 | 1041 ft | 147 kts | 84° |
| 2026-04-22 20:48 | 37.46175 | 15.00686 | 840 ft | 144 kts | 83° |
| 2026-04-22 20:49 | 37.46280 | 15.01939 | 639 ft | 143 kts | 84° |
| 2026-04-22 20:49 | 37.46386 | 15.03177 | 443 ft | 143 kts | 83° |
| 2026-04-22 20:49 | 37.46490 | 15.04416 | 252 ft | 142 kts | 82° |
| 2026-04-22 20:49 | 37.46598 | 15.05640 | 52 ft | 139 kts | 83° |
| 2026-04-22 20:50 | 37.46684 | 15.06711 | 38 ft | 96 kts | 84° |
| 2026-04-22 20:50 | 37.46734 | 15.07289 | 38 ft | 46 kts | 84° |
| 2026-04-22 20:50 | 37.46773 | 15.07581 | 39 ft | 28 kts | 72° |
| 2026-04-22 20:50 | 37.46855 | 15.07771 | 37 ft | 13 kts | 53° |
| 2026-04-22 20:51 | 37.46930 | 15.07780 | 35 ft | 13 kts | 302° |
| 2026-04-22 20:51 | 37.46930 | 15.07661 | 35 ft | 15 kts | 264° |
| 2026-04-22 20:51 | 37.46918 | 15.07520 | 35 ft | 18 kts | 264° |
| 2026-04-22 20:51 | 37.46904 | 15.07355 | 35 ft | 20 kts | 264° |
| 2026-04-22 20:52 | 37.46889 | 15.07169 | 35 ft | 23 kts | 264° |
| 2026-04-22 20:52 | 37.46872 | 15.06963 | 34 ft | 21 kts | 264° |
| 2026-04-22 20:52 | 37.46859 | 15.06814 | 34 ft | 18 kts | 264° |
| 2026-04-22 20:52 | 37.46849 | 15.06696 | 34 ft | 14 kts | 264° |
| 2026-04-22 20:53 | 37.46839 | 15.06565 | 34 ft | 16 kts | 264° |
| 2026-04-22 20:53 | 37.46859 | 15.06493 | 34 ft | 6 kts | 8° |
| 2026-04-22 20:53 | 37.46909 | 15.06510 | 34 ft | 9 kts | 19° |
| 2026-04-22 20:53 | 37.46945 | 15.06526 | 34 ft | 2 kts | 19° |
| 2026-04-22 20:54 | 37.46946 | 15.06526 | 34 ft | 0 kts | 19° |